createdAt,value
2017-09-09T00:00:32.536Z,15.80
2017-09-09T00:02:58.852Z,15.80
2017-09-09T00:05:25.144Z,15.80
2017-09-09T00:07:51.367Z,15.80
2017-09-09T00:10:17.599Z,15.80
2017-09-09T00:12:43.988Z,15.80
2017-09-09T00:15:10.274Z,15.80
2017-09-09T00:17:37.252Z,15.80
2017-09-09T00:20:03.487Z,15.80
2017-09-09T00:22:30.489Z,15.90
2017-09-09T00:24:56.862Z,15.90
2017-09-09T00:27:23.186Z,15.90
2017-09-09T00:29:49.426Z,15.90
2017-09-09T00:32:15.659Z,15.80
2017-09-09T00:34:41.906Z,15.80
2017-09-09T00:37:08.234Z,15.70
2017-09-09T00:39:34.470Z,15.70
2017-09-09T00:42:00.742Z,15.80
2017-09-09T00:44:27.019Z,15.80
2017-09-09T00:46:53.339Z,15.80
2017-09-09T00:49:19.589Z,15.80
2017-09-09T00:51:46.261Z,15.80
2017-09-09T00:54:12.695Z,15.80
2017-09-09T00:56:38.969Z,15.80
2017-09-09T00:59:05.346Z,15.90
2017-09-09T01:01:31.699Z,15.80
2017-09-09T01:03:57.978Z,15.80
2017-09-09T01:06:24.227Z,15.80
2017-09-09T01:08:50.611Z,15.90
2017-09-09T01:11:16.856Z,15.90
2017-09-09T01:13:43.119Z,16.00
2017-09-09T01:16:09.363Z,16.10
2017-09-09T01:18:35.649Z,16.10
2017-09-09T01:21:01.908Z,16.10
2017-09-09T01:23:28.167Z,15.90
2017-09-09T01:25:54.435Z,15.90
2017-09-09T01:28:20.985Z,16.00
2017-09-09T01:30:47.210Z,16.20
2017-09-09T01:33:13.471Z,16.00
2017-09-09T01:35:40.489Z,16.00
2017-09-09T01:38:06.734Z,16.00
2017-09-09T01:40:32.955Z,16.20
2017-09-09T01:43:00.184Z,15.80
2017-09-09T01:45:26.415Z,15.80
2017-09-09T01:47:53.401Z,15.50
2017-09-09T01:50:19.743Z,15.50
2017-09-09T01:52:45.978Z,15.40
2017-09-09T01:55:12.206Z,15.10
2017-09-09T01:57:38.442Z,15.00
2017-09-09T02:00:04.678Z,15.20
2017-09-09T02:02:31.089Z,15.40
2017-09-09T02:04:57.326Z,15.30
2017-09-09T02:07:23.540Z,15.60
2017-09-09T02:09:49.764Z,15.70
2017-09-09T02:12:16.008Z,15.90
2017-09-09T02:14:42.243Z,15.90
2017-09-09T02:17:09.286Z,15.90
2017-09-09T02:19:36.266Z,15.90
2017-09-09T02:22:02.497Z,15.90
2017-09-09T02:24:28.725Z,16.00
2017-09-09T02:26:56.115Z,15.90
2017-09-09T02:29:22.367Z,15.50
2017-09-09T02:31:49.354Z,15.80
2017-09-09T02:34:15.596Z,15.80
2017-09-09T02:36:42.550Z,15.70
2017-09-09T02:39:08.807Z,15.70
2017-09-09T02:41:35.116Z,15.70
2017-09-09T02:44:01.388Z,15.80
2017-09-09T02:46:27.650Z,15.70
2017-09-09T02:48:53.895Z,15.70
2017-09-09T02:51:20.166Z,15.60
2017-09-09T02:53:47.183Z,15.70
2017-09-09T02:56:13.433Z,15.70
2017-09-09T02:58:40.501Z,15.50
2017-09-09T03:01:06.735Z,15.50
2017-09-09T03:03:33.734Z,15.40
2017-09-09T03:06:00.067Z,15.70
2017-09-09T03:08:27.156Z,15.30
2017-09-09T03:10:53.446Z,15.30
2017-09-09T03:13:19.719Z,15.40
2017-09-09T03:15:46.722Z,15.40
2017-09-09T03:18:13.712Z,15.30
2017-09-09T03:20:39.959Z,15.30
2017-09-09T03:23:06.211Z,15.20
2017-09-09T03:25:32.470Z,15.40
2017-09-09T03:27:59.473Z,15.40
2017-09-09T03:30:25.759Z,15.70
2017-09-09T03:32:52.755Z,15.50
2017-09-09T03:35:19.014Z,15.50
2017-09-09T03:37:45.267Z,15.40
2017-09-09T03:40:12.254Z,15.20
2017-09-09T03:42:38.509Z,15.20
2017-09-09T03:45:04.755Z,15.30
2017-09-09T03:47:31.737Z,15.20
2017-09-09T03:49:57.975Z,15.20
2017-09-09T03:52:24.207Z,15.10
2017-09-09T03:54:50.439Z,15.20
2017-09-09T03:57:16.657Z,14.80
2017-09-09T03:59:42.882Z,14.90
2017-09-09T04:02:09.151Z,15.00
2017-09-09T04:04:35.379Z,15.10
2017-09-09T04:07:01.650Z,15.00
2017-09-09T04:09:27.938Z,15.10
2017-09-09T04:11:54.587Z,15.10
2017-09-09T04:14:20.802Z,15.10
2017-09-09T04:16:47.056Z,15.10
2017-09-09T04:19:13.333Z,15.10
2017-09-09T04:21:40.336Z,14.90
2017-09-09T04:24:06.591Z,14.90
2017-09-09T04:26:32.883Z,15.00
2017-09-09T04:28:59.942Z,15.20
2017-09-09T04:31:26.194Z,15.20
2017-09-09T04:33:52.451Z,15.10
2017-09-09T04:36:18.699Z,15.00
2017-09-09T04:38:45.995Z,15.00
2017-09-09T04:41:12.251Z,14.90
2017-09-09T04:43:39.251Z,15.10
2017-09-09T04:46:05.529Z,15.00
2017-09-09T04:48:31.779Z,15.30
2017-09-09T04:50:58.059Z,15.00
2017-09-09T04:53:25.083Z,14.80
2017-09-09T04:55:51.338Z,14.80
2017-09-09T04:58:17.605Z,14.80
2017-09-09T05:00:44.615Z,14.90
2017-09-09T05:03:11.627Z,15.00
2017-09-09T05:05:37.919Z,15.00
2017-09-09T05:08:04.968Z,14.70
2017-09-09T05:10:31.234Z,14.70
2017-09-09T05:12:57.486Z,14.80
2017-09-09T05:15:24.511Z,14.90
2017-09-09T05:17:50.746Z,15.40
2017-09-09T05:20:17.000Z,14.90
2017-09-09T05:22:43.259Z,15.00
2017-09-09T05:25:09.523Z,14.80
2017-09-09T05:27:35.811Z,14.90
2017-09-09T05:30:02.091Z,14.90
2017-09-09T05:32:28.418Z,14.90
2017-09-09T05:34:54.701Z,15.00
2017-09-09T05:37:21.765Z,15.00
2017-09-09T05:39:48.051Z,15.00
2017-09-09T05:42:14.324Z,14.90
2017-09-09T05:44:40.576Z,15.00
2017-09-09T05:47:06.858Z,15.00
2017-09-09T05:49:33.131Z,15.00
2017-09-09T05:52:00.136Z,15.00
2017-09-09T05:54:26.387Z,15.00
2017-09-09T05:56:52.626Z,15.00
2017-09-09T05:59:18.876Z,15.00
2017-09-09T06:01:45.983Z,14.80
2017-09-09T06:04:12.254Z,14.80
2017-09-09T06:06:38.521Z,14.80
2017-09-09T06:09:05.530Z,14.80
2017-09-09T06:11:31.808Z,15.10
2017-09-09T06:13:58.080Z,14.80
2017-09-09T06:16:24.330Z,14.70
2017-09-09T06:18:50.732Z,14.70
2017-09-09T06:21:17.000Z,14.50
2017-09-09T06:23:43.264Z,14.50
2017-09-09T06:26:09.531Z,14.60
2017-09-09T06:28:35.805Z,14.60
2017-09-09T06:31:02.059Z,14.70
2017-09-09T06:33:28.334Z,14.60
2017-09-09T06:35:54.580Z,14.60
2017-09-09T06:38:21.578Z,14.70
2017-09-09T06:40:48.612Z,14.70
2017-09-09T06:43:15.603Z,14.70
2017-09-09T06:45:42.599Z,14.70
2017-09-09T06:48:08.839Z,14.60
2017-09-09T06:50:35.055Z,14.50
2017-09-09T06:53:01.380Z,14.50
2017-09-09T06:55:28.374Z,14.50
2017-09-09T06:57:55.438Z,14.50
2017-09-09T07:00:21.700Z,14.90
2017-09-09T07:02:48.675Z,14.60
2017-09-09T07:05:14.988Z,14.60
2017-09-09T07:07:41.978Z,14.80
2017-09-09T07:10:08.224Z,14.80
2017-09-09T07:12:34.570Z,14.80
2017-09-09T07:15:01.600Z,14.80
2017-09-09T07:17:27.856Z,14.70
2017-09-09T07:19:54.080Z,14.80
2017-09-09T07:22:20.294Z,14.80
2017-09-09T07:24:46.527Z,14.80
2017-09-09T07:27:12.744Z,14.80
2017-09-09T07:29:39.127Z,14.90
2017-09-09T07:32:06.267Z,15.00
2017-09-09T07:34:32.708Z,15.00
2017-09-09T07:36:59.104Z,14.90
2017-09-09T07:39:25.342Z,14.80
2017-09-09T07:41:51.678Z,14.80
2017-09-09T07:44:17.963Z,14.90
2017-09-09T07:46:44.223Z,14.90
2017-09-09T07:49:10.522Z,15.00
2017-09-09T07:51:36.783Z,14.90
2017-09-09T07:54:03.108Z,15.20
2017-09-09T07:56:30.175Z,15.20
2017-09-09T07:58:56.553Z,15.20
2017-09-09T08:01:22.927Z,15.20
2017-09-09T08:03:49.215Z,15.10
2017-09-09T08:06:15.516Z,15.10
2017-09-09T08:08:41.814Z,15.00
2017-09-09T08:11:08.125Z,15.10
2017-09-09T08:13:34.399Z,15.20
2017-09-09T08:16:00.646Z,15.20
2017-09-09T08:18:26.940Z,15.20
2017-09-09T08:20:53.249Z,15.30
2017-09-09T08:23:19.556Z,15.90
2017-09-09T08:25:45.849Z,15.30
2017-09-09T08:28:12.967Z,15.30
2017-09-09T08:30:39.198Z,15.30
2017-09-09T08:33:05.472Z,15.30
2017-09-09T08:35:31.741Z,15.20
2017-09-09T08:37:58.070Z,14.90
2017-09-09T08:40:24.379Z,15.20
2017-09-09T08:42:50.711Z,14.70
2017-09-09T08:45:16.958Z,14.80
2017-09-09T08:47:43.192Z,14.80
2017-09-09T08:50:10.183Z,15.10
2017-09-09T08:52:36.528Z,15.10
2017-09-09T08:55:03.535Z,15.30
2017-09-09T08:57:29.778Z,15.30
2017-09-09T08:59:56.216Z,15.30
2017-09-09T09:02:23.343Z,15.30
2017-09-09T09:04:50.374Z,15.30
2017-09-09T09:07:16.607Z,15.30
2017-09-09T09:09:43.575Z,15.40
2017-09-09T09:12:09.820Z,15.40
2017-09-09T09:14:36.084Z,15.50
2017-09-09T09:17:02.342Z,15.60
2017-09-09T09:19:29.310Z,15.60
2017-09-09T09:21:55.647Z,15.60
2017-09-09T09:24:21.853Z,15.70
2017-09-09T09:26:48.083Z,15.70
2017-09-09T09:29:14.343Z,15.60
2017-09-09T09:31:41.315Z,15.50
2017-09-09T09:34:07.579Z,15.50
2017-09-09T09:36:33.824Z,15.50
2017-09-09T09:39:00.073Z,15.50
2017-09-09T09:41:27.078Z,15.70
2017-09-09T09:43:53.336Z,15.70
2017-09-09T09:46:19.601Z,16.10
2017-09-09T09:48:45.876Z,16.70
2017-09-09T09:51:12.144Z,16.80
2017-09-09T09:53:38.407Z,16.70
2017-09-09T09:56:05.387Z,16.70
2017-09-09T09:58:31.673Z,16.70
2017-09-09T10:00:58.694Z,17.10
2017-09-09T10:03:25.011Z,17.00
2017-09-09T10:05:51.260Z,17.30
2017-09-09T10:08:17.546Z,17.40
2017-09-09T10:10:43.801Z,17.70
2017-09-09T10:13:10.175Z,18.20
2017-09-09T10:15:36.430Z,18.60
2017-09-09T10:18:02.679Z,18.60
2017-09-09T10:20:29.044Z,18.80
2017-09-09T10:22:55.375Z,19.40
2017-09-09T10:25:30.200Z,19.40
2017-09-09T10:27:56.486Z,19.40
2017-09-09T10:30:22.768Z,19.60
2017-09-09T10:32:49.065Z,19.50
2017-09-09T10:35:16.423Z,19.30
2017-09-09T10:37:42.691Z,19.30
2017-09-09T10:40:08.980Z,19.30
2017-09-09T10:42:35.342Z,19.20
2017-09-09T10:45:01.633Z,19.00
2017-09-09T10:47:27.908Z,18.80
2017-09-09T10:49:54.195Z,18.80
2017-09-09T10:52:20.485Z,18.90
2017-09-09T10:54:47.491Z,19.40
2017-09-09T10:57:14.603Z,19.60
2017-09-09T10:59:40.925Z,19.60
2017-09-09T11:02:07.200Z,19.50
2017-09-09T11:04:33.487Z,19.30
2017-09-09T11:06:59.746Z,19.20
2017-09-09T11:09:26.007Z,19.00
2017-09-09T11:11:53.022Z,18.80
2017-09-09T11:14:19.302Z,18.80
2017-09-09T11:16:46.292Z,18.50
2017-09-09T11:19:12.539Z,18.90
2017-09-09T11:21:38.834Z,18.20
2017-09-09T11:24:05.224Z,18.00
2017-09-09T11:26:31.526Z,17.80
2017-09-09T11:28:57.818Z,17.80
2017-09-09T11:31:24.079Z,17.90
2017-09-09T11:33:50.342Z,18.10
2017-09-09T11:36:16.645Z,18.30
2017-09-09T11:38:42.918Z,18.20
2017-09-09T11:41:09.189Z,18.50
2017-09-09T11:43:36.183Z,18.10
2017-09-09T11:46:02.457Z,18.10
2017-09-09T11:48:28.734Z,18.10
2017-09-09T11:50:55.020Z,18.40
2017-09-09T11:53:21.815Z,18.00
2017-09-09T11:55:48.063Z,17.90
2017-09-09T11:58:14.327Z,17.80
2017-09-09T12:00:40.790Z,18.00
2017-09-09T12:03:07.054Z,18.50
2017-09-09T12:05:34.077Z,19.10
2017-09-09T12:08:00.322Z,19.10
2017-09-09T12:10:26.585Z,19.40
2017-09-09T12:12:52.839Z,19.70
2017-09-09T12:15:19.086Z,20.00
2017-09-09T12:17:45.412Z,20.10
2017-09-09T12:20:11.682Z,20.10
2017-09-09T12:22:38.675Z,20.40
2017-09-09T12:25:04.916Z,20.40
2017-09-09T12:27:31.196Z,20.20
2017-09-09T12:29:57.564Z,20.40
2017-09-09T12:32:23.835Z,20.60
2017-09-09T12:34:50.145Z,20.50
2017-09-09T12:37:16.476Z,20.60
2017-09-09T12:39:42.748Z,20.50
2017-09-09T12:42:09.005Z,20.60
2017-09-09T12:44:35.262Z,20.70
2017-09-09T12:47:01.509Z,20.60
2017-09-09T12:49:27.759Z,20.60
2017-09-09T12:51:55.542Z,20.50
2017-09-09T12:54:21.876Z,20.50
2017-09-09T12:56:48.862Z,20.60
2017-09-09T12:59:15.858Z,20.60
2017-09-09T13:01:42.861Z,20.50
2017-09-09T13:04:09.120Z,20.50
2017-09-09T13:06:35.488Z,20.80
2017-09-09T13:09:02.553Z,20.30
2017-09-09T13:11:28.807Z,20.30
2017-09-09T13:13:55.055Z,20.20
2017-09-09T13:16:21.446Z,20.10
2017-09-09T13:18:47.691Z,20.10
2017-09-09T13:21:14.018Z,20.10
2017-09-09T13:23:40.299Z,20.10
2017-09-09T13:26:06.630Z,20.10
2017-09-09T13:28:32.889Z,20.10
2017-09-09T13:30:59.870Z,20.20
2017-09-09T13:33:26.239Z,20.10
2017-09-09T13:35:52.569Z,20.20
2017-09-09T13:38:19.612Z,20.50
2017-09-09T13:40:46.666Z,20.70
2017-09-09T13:43:12.989Z,20.70
2017-09-09T13:45:39.283Z,20.80
2017-09-09T13:48:06.349Z,20.50
2017-09-09T13:50:32.755Z,20.50
2017-09-09T13:52:59.453Z,20.50
2017-09-09T13:55:25.779Z,20.60
2017-09-09T13:57:54.550Z,20.60
2017-09-09T14:00:20.874Z,20.50
2017-09-09T14:02:47.602Z,20.30
2017-09-09T14:05:15.181Z,20.00
2017-09-09T14:07:41.505Z,19.50
2017-09-09T14:10:08.099Z,19.40
2017-09-09T14:12:35.019Z,19.10
2017-09-09T14:15:01.303Z,19.00
2017-09-09T14:17:28.438Z,18.90
2017-09-09T14:19:54.989Z,18.20
2017-09-09T14:22:21.682Z,17.90
2017-09-09T14:24:48.300Z,17.60
2017-09-09T14:27:16.057Z,17.20
2017-09-09T14:29:42.339Z,16.80
2017-09-09T14:32:08.617Z,16.60
2017-09-09T14:34:34.954Z,16.40
2017-09-09T14:37:01.264Z,16.20
2017-09-09T14:39:27.580Z,16.00
2017-09-09T14:41:54.099Z,15.80
2017-09-09T14:44:21.568Z,15.70
2017-09-09T14:46:48.275Z,15.70
2017-09-09T14:49:14.845Z,15.60
2017-09-09T14:51:41.594Z,15.70
2017-09-09T14:54:08.334Z,15.80
2017-09-09T14:56:35.888Z,15.90
2017-09-09T14:59:04.366Z,15.90
2017-09-09T15:01:30.998Z,15.80
2017-09-09T15:03:57.728Z,15.90
2017-09-09T15:06:24.339Z,15.90
2017-09-09T15:08:52.507Z,16.00
2017-09-09T15:11:18.832Z,16.00
2017-09-09T15:13:45.894Z,16.20
2017-09-09T15:16:12.545Z,16.20
2017-09-09T15:18:39.120Z,16.20
2017-09-09T15:21:05.699Z,16.30
2017-09-09T15:23:32.549Z,16.40
2017-09-09T15:25:59.647Z,16.50
2017-09-09T15:28:26.159Z,16.50
2017-09-09T15:30:52.739Z,16.60
2017-09-09T15:33:20.340Z,16.50
2017-09-09T15:35:46.990Z,16.50
2017-09-09T15:38:14.235Z,16.50
2017-09-09T15:40:41.672Z,16.70
2017-09-09T15:43:07.916Z,16.70
2017-09-09T15:45:34.213Z,16.80
2017-09-09T15:48:00.469Z,16.70
2017-09-09T15:50:26.751Z,17.20
2017-09-09T15:52:53.017Z,16.80
2017-09-09T15:55:19.251Z,16.80
2017-09-09T15:57:46.255Z,17.00
2017-09-09T16:00:12.522Z,17.00
2017-09-09T16:02:39.507Z,17.10
2017-09-09T16:05:05.768Z,17.10
2017-09-09T16:07:32.015Z,17.10
2017-09-09T16:09:58.260Z,17.50
2017-09-09T16:12:24.763Z,17.30
2017-09-09T16:14:51.025Z,17.20
2017-09-09T16:17:17.262Z,17.10
2017-09-09T16:19:43.500Z,17.10
2017-09-09T16:22:10.572Z,16.90
2017-09-09T16:24:37.609Z,17.00
2017-09-09T16:27:03.838Z,17.00
2017-09-09T16:29:30.079Z,17.20
2017-09-09T16:31:56.351Z,17.00
2017-09-09T16:34:23.322Z,16.90
2017-09-09T16:36:49.564Z,16.90
2017-09-09T16:39:15.791Z,16.80
2017-09-09T16:41:42.167Z,16.80
2017-09-09T16:44:08.423Z,16.80
2017-09-09T16:46:35.305Z,16.80
2017-09-09T16:49:02.404Z,16.70
2017-09-09T16:51:29.381Z,16.30
2017-09-09T16:53:56.435Z,16.50
2017-09-09T16:56:22.799Z,16.50
2017-09-09T16:58:49.040Z,16.60
2017-09-09T17:01:16.166Z,16.60
2017-09-09T17:03:42.415Z,16.60
2017-09-09T17:06:09.398Z,16.80
2017-09-09T17:08:35.652Z,16.50
2017-09-09T17:11:01.934Z,16.80
2017-09-09T17:13:28.203Z,16.80
2017-09-09T17:15:54.462Z,16.80
2017-09-09T17:18:20.830Z,16.70
2017-09-09T17:20:47.076Z,16.50
2017-09-09T17:23:14.156Z,16.30
2017-09-09T17:25:40.611Z,16.30
2017-09-09T17:28:06.990Z,16.30
2017-09-09T17:30:34.051Z,16.10
2017-09-09T17:33:00.305Z,16.10
2017-09-09T17:35:27.303Z,15.90
2017-09-09T17:37:53.596Z,15.90
2017-09-09T17:40:20.137Z,15.60
2017-09-09T17:42:46.569Z,16.00
2017-09-09T17:45:12.867Z,15.70
2017-09-09T17:47:39.853Z,15.90
2017-09-09T17:50:06.100Z,15.80
2017-09-09T17:52:33.122Z,15.90
2017-09-09T17:54:59.370Z,15.90
2017-09-09T17:57:26.398Z,15.90
2017-09-09T17:59:52.686Z,15.90
2017-09-09T18:02:18.943Z,15.80
2017-09-09T18:04:45.179Z,15.80
2017-09-09T18:07:11.423Z,16.30
2017-09-09T18:09:37.685Z,15.80
2017-09-09T18:12:03.925Z,16.00
2017-09-09T18:14:30.154Z,15.70
2017-09-09T18:16:57.154Z,15.60
2017-09-09T18:19:23.422Z,15.80
2017-09-09T18:21:50.487Z,15.60
2017-09-09T18:24:17.482Z,15.50
2017-09-09T18:26:43.755Z,15.50
2017-09-09T18:29:10.738Z,15.50
2017-09-09T18:31:36.978Z,15.50
2017-09-09T18:34:03.248Z,14.80
2017-09-09T18:36:29.515Z,15.40
2017-09-09T18:38:56.594Z,15.30
2017-09-09T18:41:22.860Z,15.30
2017-09-09T18:43:49.163Z,15.20
2017-09-09T18:46:15.415Z,15.20
2017-09-09T18:48:42.402Z,15.20
2017-09-09T18:51:08.728Z,15.50
2017-09-09T18:53:35.009Z,15.00
2017-09-09T18:56:01.255Z,15.00
2017-09-09T18:58:27.558Z,14.90
2017-09-09T19:00:54.579Z,15.00
2017-09-09T19:03:20.835Z,15.00
2017-09-09T19:05:47.851Z,14.70
2017-09-09T19:08:14.139Z,14.80
2017-09-09T19:10:40.403Z,14.80
2017-09-09T19:13:06.796Z,14.90
2017-09-09T19:15:33.086Z,14.70
2017-09-09T19:18:00.104Z,14.60
2017-09-09T19:20:27.170Z,14.70
2017-09-09T19:22:53.446Z,14.70
2017-09-09T19:25:19.721Z,14.60
2017-09-09T19:27:46.138Z,14.90
2017-09-09T19:30:12.477Z,14.50
2017-09-09T19:32:38.814Z,14.40
2017-09-09T19:35:05.453Z,14.50
2017-09-09T19:37:31.883Z,14.50
2017-09-09T19:39:58.170Z,14.60
2017-09-09T19:42:24.427Z,14.60
2017-09-09T19:44:50.786Z,14.70
2017-09-09T19:47:17.802Z,14.60
2017-09-09T19:49:44.059Z,14.60
2017-09-09T19:52:10.446Z,14.60
2017-09-09T19:54:37.548Z,14.50
2017-09-09T19:57:03.849Z,14.50
2017-09-09T19:59:30.872Z,14.50
2017-09-09T20:01:57.131Z,14.50
2017-09-09T20:04:23.443Z,14.60
2017-09-09T20:06:50.377Z,14.70
2017-09-09T20:09:16.667Z,14.70
2017-09-09T20:11:42.936Z,14.00
2017-09-09T20:14:09.221Z,14.70
2017-09-09T20:16:35.499Z,14.70
2017-09-09T20:19:02.552Z,14.60
2017-09-09T20:21:28.827Z,14.60
2017-09-09T20:23:55.110Z,14.70
2017-09-09T20:26:21.335Z,14.60
2017-09-09T20:28:47.621Z,14.50
2017-09-09T20:31:13.863Z,14.50
2017-09-09T20:33:40.131Z,14.40
2017-09-09T20:36:07.127Z,14.50
2017-09-09T20:38:33.408Z,14.40
2017-09-09T20:41:00.434Z,14.30
2017-09-09T20:43:27.419Z,14.40
2017-09-09T20:45:53.752Z,14.40
2017-09-09T20:48:19.982Z,14.50
2017-09-09T20:50:46.249Z,14.50
2017-09-09T20:53:12.522Z,14.50
2017-09-09T20:55:39.060Z,14.50
2017-09-09T20:58:06.112Z,14.50
2017-09-09T21:00:32.427Z,14.50
2017-09-09T21:02:58.697Z,14.40
2017-09-09T21:05:24.942Z,14.30
2017-09-09T21:07:51.207Z,14.30
2017-09-09T21:10:17.474Z,14.20
2017-09-09T21:12:43.728Z,14.20
2017-09-09T21:15:10.770Z,14.10
2017-09-09T21:17:37.799Z,14.10
2017-09-09T21:20:04.022Z,14.10
2017-09-09T21:22:30.357Z,14.00
2017-09-09T21:24:56.606Z,14.10
2017-09-09T21:27:22.929Z,14.10
2017-09-09T21:29:49.211Z,14.00
2017-09-09T21:32:15.447Z,14.00
2017-09-09T21:34:41.683Z,14.00
2017-09-09T21:37:08.066Z,14.00
2017-09-09T21:39:34.322Z,14.00
2017-09-09T21:42:00.723Z,13.80
2017-09-09T21:44:27.087Z,13.80
2017-09-09T21:46:53.386Z,13.80
2017-09-09T21:49:20.430Z,13.60
2017-09-09T21:51:46.684Z,13.60
2017-09-09T21:54:13.005Z,13.60
2017-09-09T21:56:39.302Z,13.70
2017-09-09T21:59:05.555Z,13.70
2017-09-09T22:01:32.783Z,13.60
2017-09-09T22:04:00.166Z,13.70
2017-09-09T22:06:26.513Z,13.70
2017-09-09T22:08:52.787Z,13.80
2017-09-09T22:11:19.816Z,13.90
2017-09-09T22:13:46.810Z,13.90
2017-09-09T22:16:13.838Z,13.90
2017-09-09T22:18:40.187Z,13.90
2017-09-09T22:21:06.487Z,13.80
2017-09-09T22:23:32.762Z,13.80
2017-09-09T22:25:59.055Z,13.80
2017-09-09T22:28:25.323Z,13.80
2017-09-09T22:30:51.553Z,13.80
2017-09-09T22:33:17.787Z,13.80
2017-09-09T22:35:44.051Z,13.80
2017-09-09T22:38:11.220Z,14.30
2017-09-09T22:40:37.451Z,13.80
2017-09-09T22:43:03.780Z,13.90
2017-09-09T22:45:30.075Z,13.80
2017-09-09T22:47:56.386Z,13.90
2017-09-09T22:50:23.454Z,14.00
2017-09-09T22:52:49.717Z,14.00
2017-09-09T22:55:15.951Z,14.20
2017-09-09T22:57:42.223Z,14.00
2017-09-09T23:00:09.217Z,14.00
2017-09-09T23:02:36.207Z,13.90
2017-09-09T23:05:03.206Z,14.00
2017-09-09T23:07:29.450Z,14.00
2017-09-09T23:09:55.758Z,14.10
2017-09-09T23:12:22.758Z,14.00
2017-09-09T23:14:49.777Z,14.00
2017-09-09T23:17:16.031Z,14.00
2017-09-09T23:19:43.038Z,13.90
2017-09-09T23:22:10.024Z,13.90
2017-09-09T23:24:36.283Z,13.90
2017-09-09T23:27:02.543Z,13.80
2017-09-09T23:29:28.910Z,13.80
2017-09-09T23:31:56.277Z,13.80
2017-09-09T23:34:22.630Z,13.80
2017-09-09T23:36:48.907Z,13.80
2017-09-09T23:39:15.154Z,13.90
2017-09-09T23:41:41.469Z,13.90
2017-09-09T23:44:08.450Z,13.90
2017-09-09T23:46:35.438Z,13.90
2017-09-09T23:49:01.689Z,13.80
2017-09-09T23:51:28.663Z,13.90
2017-09-09T23:53:54.895Z,13.80
2017-09-09T23:56:21.151Z,13.80
2017-09-09T23:58:48.159Z,13.90
